Flight Track Log - Related Links

Times and Time Zones

All times are in EDT time to prevent confusion due to time zone crossing. See the N693EE flight status page for this flight to view local times or setup timezone preferences in your user account.

Time Position Orientation Groundspeed Altitude Reporting Facility
EDT Latitude Longitude Course Direction KTS MPH feet Rate Location/Type
Thu 09:39:48 AM 36.7400 -108.2025 203° Southwest 124 143 6,200  Level Albuquerque Center
Thu 09:40:00 AM 36.3517 -108.4178 200° South  Level FlightAware Approximate
Thu 09:40:49 AM 36.7069 -108.1986 175° South 165 190 7,600  Level Albuquerque Center
Thu 09:41:00 AM 36.2964 -108.4440 203° Southwest  Level FlightAware Approximate
Thu 09:41:50 AM 36.6647 -108.2217 204° Southwest 168 193 9,200  Level Albuquerque Center
Thu 09:42:00 AM 36.2419 -108.4728 203° Southwest  Level FlightAware Approximate
Thu 09:42:51 AM 36.6131 -108.2494 203° Southwest 175 201 11,300  Level Albuquerque Center
Thu 09:43:00 AM 36.1874 -108.5015 203° Southwest  Level FlightAware Approximate
Thu 09:43:52 AM 36.5700 -108.2736 204° Southwest 176 203 12,900  Level Albuquerque Center
Thu 09:44:00 AM 36.1329 -108.5302 203° Southwest  Level FlightAware Approximate
Thu 09:44:54 AM 36.5256 -108.2975 203° Southwest 178 205 14,400  Level Denver Center
Thu 09:45:00 AM 36.0784 -108.5589 203° Southwest  Level FlightAware Approximate
Thu 09:45:55 AM 36.4711 -108.3283 204° Southwest 186 214 16,100  Level Denver Center
Thu 09:46:56 AM 36.4297 -108.3508 204° Southwest 194 223 17,400 1,343 Climbing Denver Center
Thu 09:48:09 AM 36.3642 -108.3878 204° Southwest 200 230 19,100 1,478 Climbing Denver Center
Thu 09:49:10 AM 36.3025 -108.4222 204° Southwest 210 242 20,700 1,366 Climbing Denver Center
Thu 09:50:12 AM 36.2378 -108.4578 204° Southwest 221 254 21,900 634 Climbing Denver Center
Thu 09:51:13 AM 36.1719 -108.4961 205° Southwest 257 296 22,000 55 Climbing Denver Center
Thu 09:52:02 AM 36.1122 -108.5294 204° Southwest 280 322 22,000  Level Albuquerque Center
Thu 09:53:03 AM 36.0389 -108.5681 203° Southwest 290 334 22,000  Level Albuquerque Center
Thu 09:54:05 AM 35.9536 -108.6153 204° Southwest 293 337 22,000  Level Albuquerque Center
Thu 09:55:06 AM 35.8808 -108.6544 204° Southwest 293 337 22,000  Level Albuquerque Center
Thu 09:56:07 AM 35.8078 -108.6939 204° Southwest 294 338 22,000  Level Albuquerque Center
Thu 09:57:09 AM 35.7233 -108.7397 204° Southwest 294 338 22,000  Level Albuquerque Center
Thu 09:58:10 AM 35.6511 -108.7797 204° Southwest 294 338 22,000  Level Albuquerque Center
Thu 09:59:11 AM 35.5778 -108.8192 204° Southwest 295 339 22,000  Level Albuquerque Center
Thu 10:00:13 AM 35.4917 -108.8661 204° Southwest 298 343 22,000  Level Albuquerque Center
Thu 10:01:14 AM 35.4411 -108.9333 227° Southwest 288 331 22,000  Level Albuquerque Center
Thu 10:02:15 AM 35.3944 -109.0222 237° Southwest 281 323 22,000  Level Albuquerque Center
Thu 10:03:17 AM 35.3536 -109.0981 237° Southwest 280 322 22,000  Level Albuquerque Center
Thu 10:04:18 AM 35.3119 -109.1722 235° Southwest 280 322 22,000  Level Albuquerque Center
Thu 10:05:20 AM 35.2636 -109.2608 236° Southwest 280 322 22,000  Level Albuquerque Center
Thu 10:06:21 AM 35.2217 -109.3358 236° Southwest 280 322 22,000  Level Albuquerque Center
Thu 10:07:23 AM 35.1725 -109.4231 235° Southwest 280 322 22,000  Level Albuquerque Center
Thu 10:08:25 AM 35.1322 -109.4992 237° Southwest 280 322 22,000  Level Albuquerque Center
Thu 10:09:26 AM 35.0906 -109.5733 236° Southwest 279 321 22,000  Level Albuquerque Center
Thu 10:10:28 AM 35.0422 -109.6589 235° Southwest 278 320 22,000  Level Albuquerque Center
Thu 10:11:29 AM 35.0017 -109.7339 237° Southwest 277 319 22,000  Level Albuquerque Center
Thu 10:12:31 AM 34.9531 -109.8208 236° Southwest 277 319 22,000  Level Albuquerque Center
Thu 10:13:33 AM 34.9106 -109.8928 234° Southwest 277 319 22,000  Level Albuquerque Center
Thu 10:14:34 AM 34.8625 -109.9803 236° Southwest 277 319 22,000  Level Albuquerque Center
Thu 10:15:36 AM 34.8203 -110.0533 235° Southwest 277 319 22,000  Level Albuquerque Center
Thu 10:16:38 AM 34.7811 -110.1331 239° Southwest 284 327 22,000  Level Albuquerque Center
Thu 10:17:39 AM 34.7439 -110.2247 244° Southwest 273 314 22,000  Level Albuquerque Center
Thu 10:18:42 AM 34.7272 -110.3089 256° West 264 304 22,000  Level Albuquerque Center
Thu 10:19:43 AM 34.7069 -110.4058 256° West 267 307 22,000  Level Albuquerque Center
Thu 10:20:45 AM 34.6872 -110.4875 254° West 267 307 22,000  Level Albuquerque Center
Thu 10:21:46 AM 34.6658 -110.5847 255° West 266 306 22,000  Level Albuquerque Center
Thu 10:22:48 AM 34.6481 -110.6683 256° West 267 307 22,000  Level Albuquerque Center
Thu 10:23:50 AM 34.6269 -110.7511 253° West 267 307 22,000  Level Albuquerque Center
Thu 10:24:52 AM 34.6069 -110.8386 255° West 267 307 22,000  Level Albuquerque Center
Thu 10:25:54 AM 34.5850 -110.9256 253° West 268 308 22,000  Level Albuquerque Center
Thu 10:26:55 AM 34.4939 -110.9719 203° Southwest 291 335 22,000 -244 Level Albuquerque Center
Thu 10:27:57 AM 34.4150 -110.9989 196° South 292 336 21,500 -919 Descending Albuquerque Center
Thu 10:28:59 AM 34.3317 -111.0253 195° South 296 341 20,100 -1,306 Descending Albuquerque Center
Thu 10:30:01 AM 34.2475 -111.0500 194° South 305 351 18,800 -1,306 Descending Albuquerque Center
Thu 10:31:03 AM 34.1683 -111.0742 194° South 300 345 17,400 -1,355 Descending Albuquerque Center
Thu 10:32:05 AM 34.1036 -111.1233 212° Southwest 286 329 16,000 -1,366 Descending Albuquerque Center
Thu 10:33:06 AM 34.0517 -111.1886 226° Southwest 276 318 14,600 -1,512 Descending Albuquerque Center
Thu 10:34:08 AM 33.9911 -111.2669 227° Southwest 269 310 12,900 -1,258 Descending Albuquerque Center
Thu 10:35:10 AM 33.9406 -111.3317 227° Southwest 267 307 12,000 -435 Descending Albuquerque Center
Thu 10:36:12 AM 33.8947 -111.3886 226° Southwest 238 274 12,000  Level Albuquerque Center
Thu 10:37:14 AM 33.8536 -111.4422 227° Southwest 221 254 12,000  Level Albuquerque Center
Thu 10:38:16 AM 33.8744 -111.4836 301° West 190 219 12,000  Level Albuquerque Center
Thu 10:39:18 AM 33.9131 -111.4394 44° Northeast 190 219 12,000  Level Albuquerque Center
Thu 10:40:20 AM 33.9503 -111.3950 45° Northeast 190 219 12,000  Level Albuquerque Center
Thu 10:41:22 AM 33.9961 -111.3422 44° Northeast 191 220 12,000  Level Albuquerque Center
Thu 10:42:24 AM 34.0050 -111.2883 79° East 197 227 12,000 48 Level Albuquerque Center
Thu 10:43:26 AM 33.9581 -111.3133 204° Southwest 216 249 12,100  Climbing Albuquerque Center
Thu 10:44:28 AM 33.9164 -111.3686 228° Southwest 220 253 12,000 -194 Descending Albuquerque Center
Thu 10:45:30 AM 33.8714 -111.4236 225° Southwest 227 261 11,700 -677 Descending Albuquerque Center
Thu 10:46:32 AM 33.8281 -111.4792 227° Southwest 227 261 10,600 -823 Descending Albuquerque Center
Thu 10:47:34 AM 33.7756 -111.5428 225° Southwest 225 259 10,000 -435 Descending Albuquerque Center
Thu 10:48:36 AM 33.7381 -111.5903 226° Southwest 198 228 9,700 -484 Descending Albuquerque Center
Thu 10:49:38 AM 33.7067 -111.6422 234° Southwest 195 224 9,000 -339 Descending Albuquerque Center
Thu 10:50:40 AM 33.6744 -111.7003 236° Southwest 205 236 9,000  Level Albuquerque Center
Thu 10:51:42 AM 33.6408 -111.7631 237° Southwest 218 251 9,000  Level Albuquerque Center
Thu 10:52:44 AM 33.6075 -111.8264 238° Southwest 221 254 9,000  Level Albuquerque Center
Thu 10:53:46 AM 33.5747 -111.8900 238° Southwest 222 255 9,000  Level Albuquerque Center
Thu 10:54:48 AM 33.5411 -111.9547 238° Southwest 225 259 9,000 -145 Level Albuquerque Center
Thu 10:55:50 AM 33.4756 -111.9964 208° Southwest 230 265 8,700 -532 Descending Albuquerque Center
Thu 10:56:52 AM 33.4144 -112.0222 199° South 230 265 7,900 -774 Descending Albuquerque Center
Thu 10:57:54 AM 33.3533 -112.0486 200° South 231 266 7,100 -435 Descending Albuquerque Center
Thu 10:58:56 AM 33.3328 -112.1050 246° West 207 238 7,000 -290 Descending Albuquerque Center
Thu 10:59:58 AM 33.3322 -112.1675 269° West 195 224 6,500 -484 Descending Albuquerque Center
Thu 11:01:00 AM 33.3489 -112.2264 289° West 188 216 6,000 -532 Descending Albuquerque Center
Thu 11:02:02 AM 33.3983 -112.2425 345° North 194 223 5,400 -488 Descending Albuquerque Center
Thu 11:03:03 AM 33.4247 -112.1894 59° Northeast 186 214 5,000 -244 Descending Albuquerque Center
Thu 11:04:05 AM 33.4317 -112.1356 81° East 178 205 4,900 -726 Descending Albuquerque Center
Thu 11:05:07 AM 33.4283 -112.0811 94° East 169 194 3,500 -1,452 Descending Albuquerque Center
Thu 11:06:09 AM 33.4294 -112.0436 88° East 120 138 1,900 -1,113 Descending Albuquerque Center
Thu 11:07:11 AM 33.4286 -112.0128 92° East 82 94 1,200 -677 Descending Albuquerque Center

Login

Don't have an account? Register now (free) for customized features, flight alerts, and more!